Dogwood City, Texas
Current Conditions -  °F | °C
As of 9:29 PM on Saturday 22 Nov 2014 (Local Time) from KTYR Reporting Station
Heavy Rain Heavy Rain  
Wind Chill: 61°   Ceiling: 3000
Heat Index: 61°   Visibility: 3mi
Dew Point: 59°   Wind: 5mph
Humidity: 93%   Direction: 30°NNE
Pressure: 29.81"   Gusts: NA
Location:  32.2242°N, 95.404°W
Report Text: KTYR 230329Z AUTO 03004KT 3SM +RA BR FEW005 BKN030 OVC035 16/15 A2981 RMK AO2 P0032 T01610150
Loading
Personal Weather Stations






























Interactive Weather Map New forecast layout! Learn more

10-Day Weather Forecast

Advertisements
Track Severe Weather on mobile